Time;durP1;ratioP1;P1;durP2;ratioP2;P2;SDS_P1;SDS_P2;PMS_P1;PMS_P2;Temp;Humidity;BMP_temperature;BMP_pressure;BME280_temperature;BME280_humidity;BME280_pressure;Samples;Min_cycle;Max_cycle;Signal;HPM_P1;HPM_P2
2023/05/11 00:00:51;;;;;;;1.10;1.00;;;9.30;99.90;;;;;;5001652;28;20074;-55
2023/05/11 00:03:18;;;;;;;1.20;1.10;;;9.20;99.90;;;;;;4997098;28;20442;-53
2023/05/11 00:05:48;;;;;;;1.20;1.10;;;9.20;99.90;;;;;;4995714;28;20038;-56
2023/05/11 00:08:15;;;;;;;2.08;1.50;;;9.20;99.90;;;;;;5002811;28;20041;-52
2023/05/11 00:10:47;;;;;;;1.70;1.60;;;9.30;99.90;;;;;;5004381;28;20050;-56
2023/05/11 00:13:14;;;;;;;2.63;1.60;;;9.30;99.90;;;;;;4998613;28;20050;-53
2023/05/11 00:15:40;;;;;;;1.48;1.20;;;9.20;99.90;;;;;;5011684;28;20483;-55
2023/05/11 00:18:07;;;;;;;1.65;1.55;;;9.30;99.90;;;;;;4992848;28;20042;-55
2023/05/11 00:20:34;;;;;;;2.20;1.15;;;9.30;99.90;;;;;;4992005;28;20100;-56
2023/05/11 00:23:01;;;;;;;1.60;0.80;;;9.30;99.90;;;;;;5012525;28;20084;-54
2023/05/11 00:25:28;;;;;;;1.30;1.20;;;9.20;99.90;;;;;;4996477;28;20547;-54
2023/05/11 00:27:54;;;;;;;3.55;1.60;;;9.20;99.90;;;;;;5003988;28;20046;-55
2023/05/11 00:30:21;;;;;;;1.77;1.63;;;9.20;99.90;;;;;;5004569;28;20038;-56
2023/05/11 00:32:52;;;;;;;2.05;1.45;;;9.10;99.90;;;;;;4993037;28;20038;-54
2023/05/11 00:35:20;;;;;;;1.58;1.30;;;9.10;99.90;;;;;;5006381;28;20093;-53
2023/05/11 00:37:47;;;;;;;1.48;1.38;;;9.00;99.90;;;;;;4992921;28;20050;-53
2023/05/11 00:40:13;;;;;;;1.70;1.20;;;9.00;99.90;;;;;;4994453;28;20132;-53
2023/05/11 00:42:40;;;;;;;1.45;1.05;;;9.00;99.90;;;;;;4992505;28;20061;-54
2023/05/11 00:45:07;;;;;;;1.58;1.40;;;9.00;99.90;;;;;;4992203;28;20101;-52
2023/05/11 00:47:34;;;;;;;2.65;1.85;;;9.00;99.90;;;;;;4999851;28;20034;-53
2023/05/11 00:50:01;;;;;;;3.03;1.70;;;9.00;99.90;;;;;;4990340;28;20045;-56
2023/05/11 00:52:28;;;;;;;2.75;1.83;;;9.00;99.90;;;;;;4997507;28;20768;-54
2023/05/11 00:54:55;;;;;;;;;;;9.00;99.90;;;;;;4958552;28;20054;-52
2023/05/11 00:57:22;;;;;;;3.08;2.10;;;9.00;99.90;;;;;;4991720;28;19976;-56
2023/05/11 00:59:49;;;;;;;2.80;1.60;;;9.00;99.90;;;;;;4991979;28;20038;-52
2023/05/11 01:02:16;;;;;;;3.45;1.90;;;9.00;99.90;;;;;;4979907;28;20050;-53
2023/05/11 01:04:44;;;;;;;3.78;1.30;;;9.00;99.90;;;;;;4994837;28;20061;-53
2023/05/11 01:07:39;;;;;;;1.98;1.60;;;9.00;99.90;;;;;;4991516;28;20042;-52
2023/05/11 01:10:37;;;;;;;2.42;1.23;;;9.00;99.90;;;;;;4990343;28;20057;-56
2023/05/11 01:13:29;;;;;;;2.25;1.55;;;8.90;99.90;;;;;;4967148;28;20070;-55
2023/05/11 01:15:57;;;;;;;1.80;1.40;;;8.90;99.90;;;;;;5008464;28;20048;-53
2023/05/11 01:18:33;;;;;;;3.38;0.98;;;8.90;99.90;;;;;;4982644;28;20055;-53
2023/05/11 01:21:08;;;;;;;3.28;1.17;;;8.90;99.90;;;;;;4989463;28;20042;-53
2023/05/11 01:23:41;;;;;;;2.28;1.23;;;8.90;99.90;;;;;;4990340;28;20046;-56
2023/05/11 01:26:12;;;;;;;2.40;1.33;;;8.90;99.90;;;;;;4990196;28;20104;-54
2023/05/11 01:29:17;;;;;;;1.23;1.13;;;8.80;99.90;;;;;;4990706;28;20430;-53
2023/05/11 01:31:46;;;;;;;2.05;1.35;;;8.80;99.90;;;;;;4979420;28;20074;-56
2023/05/11 01:34:29;;;;;;;4.10;1.75;;;8.80;99.90;;;;;;4993767;28;20491;-56
2023/05/11 01:37:20;;;;;;;3.03;1.77;;;8.80;99.90;;;;;;4992532;28;20042;-52
2023/05/11 01:40:00;;;;;;;3.58;1.50;;;8.70;99.90;;;;;;4965980;28;20502;-54
2023/05/11 01:42:37;;;;;;;1.52;1.30;;;8.70;99.90;;;;;;4974391;28;20042;-52
2023/05/11 01:45:06;;;;;;;2.05;1.10;;;8.70;99.90;;;;;;4975417;28;20046;-55
2023/05/11 01:47:36;;;;;;;0.65;0.65;;;8.70;99.90;;;;;;4997877;28;20073;-56
2023/05/11 01:50:05;;;;;;;0.82;0.60;;;8.70;99.90;;;;;;4995231;28;20121;-55
2023/05/11 01:52:34;;;;;;;1.42;0.82;;;8.70;99.90;;;;;;4994447;28;20038;-55
2023/05/11 01:55:04;;;;;;;1.13;1.02;;;8.70;99.90;;;;;;5013534;28;20042;-56
2023/05/11 01:57:32;;;;;;;1.30;1.20;;;8.70;99.90;;;;;;4981894;28;20081;-56
2023/05/11 02:00:00;;;;;;;3.08;1.23;;;8.60;99.90;;;;;;4998061;28;20380;-55
2023/05/11 02:02:28;;;;;;;1.20;0.93;;;8.70;99.90;;;;;;4999899;28;20045;-53
2023/05/11 02:04:57;;;;;;;2.70;1.10;;;8.70;99.90;;;;;;4985766;28;20129;-56
2023/05/11 02:07:26;;;;;;;5.03;1.55;;;8.70;99.90;;;;;;4990249;28;20507;-53
2023/05/11 02:09:55;;;;;;;2.00;1.38;;;8.70;99.90;;;;;;5013143;28;20073;-57
2023/05/11 02:12:24;;;;;;;4.68;1.60;;;8.70;99.90;;;;;;4994233;28;20180;-54
2023/05/11 02:14:52;;;;;;;3.40;1.40;;;8.70;99.90;;;;;;4985824;28;20042;-56
2023/05/11 02:17:21;;;;;;;2.30;1.35;;;8.70;99.90;;;;;;4995104;28;20434;-54
2023/05/11 02:19:49;;;;;;;2.15;1.50;;;8.70;99.90;;;;;;4993790;28;20434;-54
2023/05/11 02:22:19;;;;;;;2.65;1.40;;;8.70;99.90;;;;;;4985546;28;20039;-54
2023/05/11 02:24:47;;;;;;;2.72;1.45;;;8.60;99.90;;;;;;4994038;28;20046;-54
2023/05/11 02:27:14;;;;;;;1.63;1.33;;;8.60;99.90;;;;;;5001755;28;20431;-56
2023/05/11 02:29:41;;;;;;;1.10;1.00;;;8.60;99.90;;;;;;5000656;28;20658;-57
2023/05/11 02:32:16;;;;;;;2.75;1.58;;;8.60;99.90;;;;;;4995436;28;20046;-55
2023/05/11 02:34:57;;;;;;;4.70;1.58;;;8.60;99.90;;;;;;4994226;28;20054;-53
2023/05/11 02:37:26;;;;;;;2.13;1.27;;;8.60;99.90;;;;;;4984829;28;20522;-53
2023/05/11 02:39:59;;;;;;;1.52;1.10;;;8.60;99.90;;;;;;4977606;28;20411;-52
2023/05/11 02:42:29;;;;;;;1.50;1.20;;;8.60;99.90;;;;;;4996537;28;20049;-55
2023/05/11 02:45:03;;;;;;;1.10;0.85;;;8.60;99.90;;;;;;4993930;28;20042;-55
2023/05/11 02:47:35;;;;;;;0.90;0.70;;;8.60;99.90;;;;;;4985579;28;20146;-55
2023/05/11 02:50:04;;;;;;;1.17;1.00;;;8.60;99.90;;;;;;4987086;28;20046;-56
2023/05/11 02:52:42;;;;;;;1.48;0.82;;;8.50;99.90;;;;;;4981869;28;20074;-56
2023/05/11 02:55:10;;;;;;;2.00;1.52;;;8.50;99.90;;;;;;4976902;28;20050;-55
2023/05/11 02:57:38;;;;;;;1.88;1.40;;;8.50;99.90;;;;;;4991395;28;20117;-52
2023/05/11 03:00:07;;;;;;;2.63;1.48;;;8.50;99.90;;;;;;4976780;28;20053;-53
2023/05/11 03:02:34;;;;;;;1.83;1.60;;;8.50;99.90;;;;;;4975822;28;20074;-57
2023/05/11 03:05:01;;;;;;;3.75;1.85;;;8.50;99.90;;;;;;5009190;28;20069;-55
2023/05/11 03:07:28;;;;;;;2.08;1.50;;;8.50;99.90;;;;;;4976077;28;20042;-53
2023/05/11 03:09:55;;;;;;;2.15;1.50;;;8.50;99.90;;;;;;4986997;28;20395;-53
2023/05/11 03:12:22;;;;;;;1.00;0.95;;;8.50;99.90;;;;;;5008126;28;20081;-56
2023/05/11 03:14:50;;;;;;;4.03;1.40;;;8.50;99.90;;;;;;4984288;28;20054;-54
2023/05/11 03:17:19;;;;;;;4.78;1.30;;;8.50;99.90;;;;;;4982503;28;20050;-52
2023/05/11 03:19:47;;;;;;;1.48;1.13;;;8.40;99.90;;;;;;4992900;28;20050;-53
2023/05/11 03:22:15;;;;;;;1.30;1.10;;;8.40;99.90;;;;;;4979254;28;20052;-52
2023/05/11 03:24:43;;;;;;;3.33;1.20;;;8.40;99.90;;;;;;4994688;28;20415;-55
2023/05/11 03:27:10;;;;;;;2.67;1.10;;;8.40;99.90;;;;;;4984422;28;20046;-55
2023/05/11 03:29:41;;;;;;;1.60;1.08;;;8.30;99.90;;;;;;4983811;28;20129;-57
2023/05/11 03:32:08;;;;;;;1.85;0.90;;;8.30;99.90;;;;;;5006426;28;20426;-54
2023/05/11 03:34:38;;;;;;;2.70;1.10;;;8.30;99.90;;;;;;4984677;28;20051;-55
2023/05/11 03:37:13;;;;;;;1.25;0.93;;;8.40;99.90;;;;;;4995360;28;20541;-55
2023/05/11 03:39:44;;;;;;;1.35;0.90;;;8.40;99.90;;;;;;4985263;28;20050;-53
2023/05/11 03:42:13;;;;;;;0.95;0.80;;;8.40;99.90;;;;;;4996024;28;20050;-53
2023/05/11 03:44:44;;;;;;;3.90;1.33;;;8.40;99.90;;;;;;4993818;28;20089;-52
2023/05/11 03:47:13;;;;;;;1.42;1.10;;;8.40;99.90;;;;;;4989510;28;20046;-52
2023/05/11 03:49:41;;;;;;;1.20;1.00;;;8.30;99.90;;;;;;4999040;28;20096;-54
2023/05/11 03:52:08;;;;;;;2.00;1.33;;;8.30;99.90;;;;;;4984251;28;20092;-56
2023/05/11 03:54:35;;;;;;;1.25;1.15;;;8.20;99.90;;;;;;4980159;28;20054;-55
2023/05/11 03:57:02;;;;;;;;;;;8.20;99.90;;;;;;4990988;28;20042;-56
2023/05/11 03:59:28;;;;;;;3.35;1.48;;;8.20;99.90;;;;;;5001724;28;19925;-54
2023/05/11 04:01:57;;;;;;;3.72;2.00;;;8.20;99.90;;;;;;4984865;28;20045;-52
2023/05/11 04:04:29;;;;;;;3.85;1.92;;;8.30;99.90;;;;;;4997953;28;20503;-56
2023/05/11 04:06:58;;;;;;;7.10;2.03;;;8.40;99.90;;;;;;4996660;28;20031;-57
2023/05/11 04:09:25;;;;;;;3.58;1.70;;;8.40;99.90;;;;;;4980743;28;20479;-56
2023/05/11 04:11:52;;;;;;;2.80;1.75;;;8.40;99.90;;;;;;4999242;28;20108;-53
2023/05/11 04:14:19;;;;;;;2.30;1.83;;;8.40;99.90;;;;;;4992270;28;20376;-54
2023/05/11 04:16:46;;;;;;;2.30;1.55;;;8.50;99.90;;;;;;4988129;28;20435;-56
2023/05/11 04:19:13;;;;;;;1.52;1.20;;;8.50;99.90;;;;;;4993932;28;20097;-56
2023/05/11 04:21:40;;;;;;;2.80;1.70;;;8.50;99.90;;;;;;4983234;28;20101;-54
2023/05/11 04:24:08;;;;;;;2.25;1.40;;;8.50;99.90;;;;;;4980053;28;20052;-54
2023/05/11 04:26:34;;;;;;;2.03;1.38;;;8.50;99.90;;;;;;4998291;28;20117;-54
2023/05/11 04:29:02;;;;;;;1.35;1.20;;;8.50;99.90;;;;;;5009877;28;20034;-57
2023/05/11 04:31:29;;;;;;;;;;;8.50;99.90;;;;;;4981233;28;20050;-54
2023/05/11 04:33:56;;;;;;;3.00;1.30;;;8.50;99.90;;;;;;4993358;28;19921;-53
2023/05/11 04:36:23;;;;;;;1.17;0.93;;;8.50;99.90;;;;;;4992160;28;20639;-55
2023/05/11 04:38:52;;;;;;;0.77;0.77;;;8.60;99.90;;;;;;4992398;28;20046;-56
2023/05/11 04:41:19;;;;;;;3.05;1.30;;;8.50;99.90;;;;;;4978907;28;20453;-56
2023/05/11 04:43:46;;;;;;;2.53;1.23;;;8.60;99.90;;;;;;4986816;28;20042;-54
2023/05/11 04:46:13;;;;;;;2.10;1.50;;;8.60;99.90;;;;;;4982130;28;20057;-54
2023/05/11 04:48:40;;;;;;;1.98;0.98;;;8.60;99.90;;;;;;4993471;28;20050;-53
2023/05/11 04:51:08;;;;;;;1.75;1.17;;;8.60;99.90;;;;;;4986761;28;20573;-57
2023/05/11 04:53:40;;;;;;;3.33;2.00;;;8.70;99.90;;;;;;4993492;28;20078;-54
2023/05/11 04:56:08;;;;;;;0.88;0.70;;;8.70;99.90;;;;;;4985036;28;20050;-55
2023/05/11 04:58:34;;;;;;;0.95;0.73;;;8.60;99.90;;;;;;4994005;28;20046;-56
2023/05/11 05:01:01;;;;;;;2.80;0.80;;;8.60;99.90;;;;;;4974392;28;20475;-54
2023/05/11 05:03:29;;;;;;;2.25;0.80;;;8.60;99.90;;;;;;5011091;28;20048;-55
2023/05/11 05:05:56;;;;;;;1.15;0.65;;;8.50;99.90;;;;;;4975752;28;20046;-54
2023/05/11 05:08:23;;;;;;;0.60;0.60;;;8.50;99.90;;;;;;4976896;28;20105;-54
2023/05/11 05:10:49;;;;;;;0.95;0.70;;;8.50;99.90;;;;;;5000000;28;20038;-53
2023/05/11 05:13:16;;;;;;;0.95;0.32;;;8.40;99.90;;;;;;4991493;28;20038;-52
2023/05/11 05:15:44;;;;;;;1.17;0.80;;;8.40;99.90;;;;;;4992441;28;20043;-54
2023/05/11 05:18:11;;;;;;;0.88;0.40;;;8.30;99.90;;;;;;4993535;28;20050;-54
2023/05/11 05:20:38;;;;;;;2.25;1.20;;;8.30;99.90;;;;;;4989445;28;20064;-56
2023/05/11 05:23:05;;;;;;;3.35;0.95;;;8.30;99.90;;;;;;4990209;28;20518;-56
2023/05/11 05:25:32;;;;;;;0.68;0.47;;;8.30;99.90;;;;;;4984798;28;20046;-55
2023/05/11 05:27:59;;;;;;;0.77;0.50;;;8.20;99.90;;;;;;5005489;28;20075;-54
2023/05/11 05:30:26;;;;;;;2.58;0.40;;;8.30;99.90;;;;;;4973324;28;20061;-56
2023/05/11 05:32:53;;;;;;;0.65;0.40;;;8.20;99.90;;;;;;4990254;28;20494;-56
2023/05/11 05:35:21;;;;;;;4.03;0.63;;;8.20;99.90;;;;;;4980794;28;20495;-56
2023/05/11 05:37:47;;;;;;;0.40;0.40;;;8.20;99.90;;;;;;4990384;28;20057;-57
2023/05/11 05:40:15;;;;;;;;;;;8.10;99.90;;;;;;4974871;28;20169;-52
2023/05/11 05:42:46;;;;;;;0.85;0.43;;;8.10;99.90;;;;;;4983105;28;19925;-56
2023/05/11 05:45:18;;;;;;;0.50;0.40;;;8.20;99.90;;;;;;4992827;28;20046;-56
2023/05/11 05:47:45;;;;;;;1.60;0.93;;;8.20;99.90;;;;;;4978885;28;20138;-55
2023/05/11 05:50:12;;;;;;;1.23;0.40;;;8.20;99.90;;;;;;4989706;28;20043;-55
2023/05/11 05:52:40;;;;;;;0.32;0.32;;;8.30;99.90;;;;;;4967987;28;20554;-57
2023/05/11 05:55:08;;;;;;;0.57;0.47;;;8.20;99.90;;;;;;4981220;28;20046;-54
2023/05/11 05:57:36;;;;;;;0.40;0.30;;;8.20;99.90;;;;;;5001713;28;20279;-55
2023/05/11 06:00:03;;;;;;;1.48;0.50;;;8.30;99.90;;;;;;4989029;28;20038;-57
2023/05/11 06:02:38;;;;;;;1.27;0.40;;;8.40;99.90;;;;;;5004349;28;20054;-53
2023/05/11 06:05:07;;;;;;;1.50;0.57;;;8.40;99.90;;;;;;4989621;28;20046;-56
2023/05/11 06:07:34;;;;;;;2.92;0.40;;;8.40;99.90;;;;;;4990581;28;20050;-56
2023/05/11 06:10:01;;;;;;;3.03;0.70;;;8.40;99.90;;;;;;4980363;28;20055;-56
2023/05/11 06:12:30;;;;;;;1.65;0.60;;;8.50;99.90;;;;;;4968861;28;20046;-53
2023/05/11 06:14:57;;;;;;;1.70;0.38;;;8.60;99.90;;;;;;4979554;28;20483;-55
2023/05/11 06:17:24;;;;;;;0.40;0.30;;;8.40;99.90;;;;;;4984886;28;20046;-57
2023/05/11 06:19:51;;;;;;;0.77;0.50;;;8.50;99.90;;;;;;4992988;28;20454;-56
2023/05/11 06:22:21;;;;;;;1.15;0.50;;;8.60;99.90;;;;;;4981488;28;20065;-53
2023/05/11 06:24:49;;;;;;;0.90;0.60;;;8.70;99.90;;;;;;4985306;28;20051;-53
2023/05/11 06:27:17;;;;;;;0.82;0.68;;;8.70;99.90;;;;;;4989278;28;20054;-57
2023/05/11 06:29:44;;;;;;;1.15;0.88;;;8.70;99.90;;;;;;4986194;28;20075;-56
2023/05/11 06:32:11;;;;;;;2.42;0.40;;;8.70;99.90;;;;;;4994853;28;20046;-56
2023/05/11 06:34:38;;;;;;;1.05;0.60;;;8.60;99.90;;;;;;4987476;28;20038;-54
2023/05/11 06:37:05;;;;;;;0.63;0.57;;;8.70;99.90;;;;;;4995062;28;20052;-54
2023/05/11 06:39:35;;;;;;;2.92;0.30;;;8.60;99.90;;;;;;4988182;28;20048;-53
2023/05/11 06:42:02;;;;;;;0.85;0.30;;;8.50;99.90;;;;;;4994159;28;20052;-55
2023/05/11 06:44:33;;;;;;;0.68;0.30;;;8.60;99.90;;;;;;4997594;28;20038;-54
2023/05/11 06:46:59;;;;;;;;;;;8.50;99.90;;;;;;5005210;28;20088;-56
2023/05/11 06:49:26;;;;;;;0.68;0.40;;;8.50;99.90;;;;;;4990382;28;20372;-56
2023/05/11 06:51:53;;;;;;;1.23;0.45;;;8.50;99.90;;;;;;4995018;28;20058;-53
2023/05/11 06:54:21;;;;;;;0.85;0.60;;;8.50;99.90;;;;;;4979439;28;20046;-57
2023/05/11 06:56:48;;;;;;;0.77;0.73;;;8.60;99.90;;;;;;4982682;28;20038;-56
2023/05/11 06:59:14;;;;;;;1.60;0.35;;;8.60;99.90;;;;;;4993023;28;20050;-54
2023/05/11 07:01:41;;;;;;;5.45;2.08;;;8.50;99.90;;;;;;4993051;28;20045;-55
2023/05/11 07:04:08;;;;;;;1.65;0.63;;;8.50;99.90;;;;;;4996484;28;20027;-56
2023/05/11 07:06:35;;;;;;;0.35;0.35;;;8.50;99.90;;;;;;4995281;28;20522;-56
2023/05/11 07:09:02;;;;;;;1.73;1.27;;;8.60;99.90;;;;;;4994546;28;20041;-54
2023/05/11 07:11:32;;;;;;;2.08;1.40;;;8.60;99.90;;;;;;4996300;28;20086;-52
2023/05/11 07:13:58;;;;;;;0.82;0.40;;;8.60;99.90;;;;;;4990967;28;20526;-56
2023/05/11 07:16:25;;;;;;;3.53;0.40;;;8.50;99.90;;;;;;5008645;28;20085;-53
2023/05/11 07:18:52;;;;;;;0.98;0.30;;;8.50;99.90;;;;;;4991619;28;20046;-53
2023/05/11 07:21:21;;;;;;;0.73;0.30;;;8.50;99.90;;;;;;5007439;28;20479;-55
2023/05/11 07:23:47;;;;;;;1.17;0.50;;;8.50;99.90;;;;;;4990924;28;20458;-54
2023/05/11 07:26:14;;;;;;;0.52;0.32;;;8.60;99.90;;;;;;5012028;28;20486;-54
2023/05/11 07:28:41;;;;;;;1.48;0.43;;;8.70;99.90;;;;;;4999282;28;20116;-56
2023/05/11 07:31:07;;;;;;;1.17;1.08;;;8.70;99.90;;;;;;4992289;28;20042;-55
2023/05/11 07:33:37;;;;;;;0.32;0.32;;;8.80;99.90;;;;;;4993545;28;20042;-54
2023/05/11 07:36:05;;;;;;;2.25;0.70;;;8.80;99.90;;;;;;4993473;28;20050;-56
2023/05/11 07:38:32;;;;;;;1.70;0.47;;;8.80;99.90;;;;;;4992852;28;20042;-56
2023/05/11 07:40:58;;;;;;;1.17;0.90;;;8.80;99.90;;;;;;4994779;28;20423;-57
2023/05/11 07:43:25;;;;;;;4.00;0.50;;;8.80;99.90;;;;;;5012478;28;20085;-57
2023/05/11 07:45:52;;;;;;;0.55;0.30;;;8.90;99.90;;;;;;4995769;28;20543;-55
2023/05/11 07:48:19;;;;;;;0.98;0.70;;;8.90;99.90;;;;;;4993004;28;20068;-55
2023/05/11 07:50:48;;;;;;;4.07;2.05;;;8.90;99.90;;;;;;4992392;28;20470;-55
2023/05/11 07:53:15;;;;;;;0.63;0.40;;;9.10;99.90;;;;;;4992803;28;20134;-57
2023/05/11 07:55:42;;;;;;;0.90;0.40;;;9.20;99.90;;;;;;4993372;28;20554;-55
2023/05/11 07:58:08;;;;;;;1.65;0.50;;;9.30;99.90;;;;;;5001145;28;20041;-54
2023/05/11 08:00:35;;;;;;;0.70;0.38;;;9.30;99.90;;;;;;5006539;28;20038;-55
2023/05/11 08:03:02;;;;;;;1.98;0.60;;;9.30;99.90;;;;;;5008173;28;20070;-54
2023/05/11 08:05:31;;;;;;;0.90;0.50;;;9.50;99.90;;;;;;4998703;28;20049;-53
2023/05/11 08:07:58;;;;;;;0.40;0.30;;;9.60;99.90;;;;;;4993544;28;20442;-53
2023/05/11 08:10:25;;;;;;;1.67;0.40;;;9.80;99.90;;;;;;4988367;28;20455;-54
2023/05/11 08:12:52;;;;;;;0.45;0.30;;;9.90;99.90;;;;;;4999860;28;20136;-53
2023/05/11 08:15:18;;;;;;;1.60;0.60;;;10.00;99.90;;;;;;4994538;28;20054;-55
2023/05/11 08:17:45;;;;;;;0.20;0.20;;;10.10;99.90;;;;;;5006859;28;20052;-54
2023/05/11 08:20:12;;;;;;;1.35;0.22;;;10.20;99.90;;;;;;5001806;28;20053;-54
2023/05/11 08:22:39;;;;;;;2.10;0.60;;;10.40;99.90;;;;;;4992323;28;20522;-53
2023/05/11 08:25:06;;;;;;;0.60;0.30;;;10.70;99.90;;;;;;4999986;28;20041;-55
2023/05/11 08:27:33;;;;;;;;;;;10.90;99.90;;;;;;5008003;28;20173;-53
2023/05/11 08:29:59;;;;;;;2.38;0.50;;;10.60;99.90;;;;;;4991773;28;20281;-54
2023/05/11 08:32:29;;;;;;;0.20;0.20;;;10.70;99.90;;;;;;4982815;28;20072;-56
2023/05/11 08:34:56;;;;;;;0.30;0.28;;;10.40;99.90;;;;;;4998075;28;20042;-55
2023/05/11 08:37:23;;;;;;;0.77;0.20;;;10.50;99.90;;;;;;5007828;28;20255;-54
2023/05/11 08:39:50;;;;;;;1.58;0.70;;;10.50;99.90;;;;;;4991182;28;20081;-52
2023/05/11 08:42:18;;;;;;;0.80;0.30;;;10.50;99.90;;;;;;4991535;28;20042;-53
2023/05/11 08:44:48;;;;;;;5.18;0.40;;;10.20;99.90;;;;;;5005123;28;20046;-57
2023/05/11 08:47:15;;;;;;;0.40;0.20;;;10.30;99.90;;;;;;5001129;28;20053;-54
2023/05/11 08:49:44;;;;;;;0.30;0.20;;;10.20;99.90;;;;;;4991790;28;20092;-54
2023/05/11 08:52:15;;;;;;;0.95;0.25;;;10.10;99.90;;;;;;4991708;28;20097;-57
2023/05/11 08:54:41;;;;;;;3.95;0.25;;;9.70;99.90;;;;;;5011671;28;20073;-53
2023/05/11 08:57:10;;;;;;;0.55;0.20;;;9.70;99.90;;;;;;4993570;28;20043;-54
2023/05/11 08:59:37;;;;;;;0.50;0.35;;;9.60;99.90;;;;;;4992005;28;20046;-53
2023/05/11 09:02:06;;;;;;;0.57;0.20;;;9.20;99.90;;;;;;4986568;28;20095;-57
2023/05/11 09:04:35;;;;;;;4.22;0.40;;;9.40;99.90;;;;;;5006957;28;20088;-54
2023/05/11 09:07:02;;;;;;;0.68;0.30;;;9.60;99.90;;;;;;5010818;28;20113;-53
2023/05/11 09:09:29;;;;;;;3.30;0.30;;;9.60;99.90;;;;;;4995591;28;20092;-53
2023/05/11 09:11:57;;;;;;;2.05;0.22;;;9.70;99.90;;;;;;5003918;28;20043;-54
2023/05/11 09:14:26;;;;;;;0.38;0.30;;;9.30;99.90;;;;;;4990594;28;20046;-52
2023/05/11 09:16:53;;;;;;;1.02;0.40;;;9.30;99.90;;;;;;4991275;28;20070;-53
2023/05/11 09:19:20;;;;;;;1.25;0.70;;;9.30;99.90;;;;;;4992009;28;20054;-52
2023/05/11 09:21:47;;;;;;;1.75;0.50;;;9.40;99.90;;;;;;4996259;28;20033;-56
2023/05/11 09:24:14;;;;;;;0.52;0.40;;;9.30;99.90;;;;;;5009833;28;20442;-56
2023/05/11 09:26:40;;;;;;;0.57;0.43;;;9.50;99.90;;;;;;4990782;28;20081;-54
2023/05/11 09:29:07;;;;;;;1.35;0.63;;;9.60;99.90;;;;;;4991007;28;20065;-53
2023/05/11 09:31:44;;;;;;;1.63;0.68;;;9.90;99.90;;;;;;5002534;28;20376;-52
2023/05/11 09:34:15;;;;;;;2.40;0.60;;;9.90;99.90;;;;;;5001339;28;20216;-55
2023/05/11 09:36:43;;;;;;;0.70;0.50;;;10.10;99.90;;;;;;4991734;28;20046;-55
2023/05/11 09:39:11;;;;;;;0.80;0.40;;;10.00;99.90;;;;;;4990883;28;20042;-52
2023/05/11 09:41:42;;;;;;;0.52;0.52;;;10.00;99.90;;;;;;4991233;28;20125;-52
2023/05/11 09:44:11;;;;;;;0.85;0.55;;;10.00;99.90;;;;;;4991312;28;20042;-54
2023/05/11 09:46:39;;;;;;;0.40;0.30;;;10.10;99.90;;;;;;4994810;28;20061;-54
2023/05/11 09:49:07;;;;;;;0.45;0.35;;;10.20;99.90;;;;;;5010735;28;20044;-56
2023/05/11 09:51:36;;;;;;;0.98;0.47;;;10.30;99.90;;;;;;4990059;28;20120;-56
2023/05/11 09:54:18;;;;;;;1.98;0.50;;;10.30;99.90;;;;;;4998241;28;20072;-52
2023/05/11 09:56:46;;;;;;;1.17;0.40;;;10.50;99.90;;;;;;5004640;28;20129;-55
2023/05/11 09:59:36;;;;;;;0.85;0.50;;;10.30;99.90;;;;;;4998608;28;20034;-55
2023/05/11 10:02:23;;;;;;;1.17;0.70;;;10.30;99.90;;;;;;5002523;28;20042;-54
2023/05/11 10:04:52;;;;;;;0.50;0.40;;;10.30;99.90;;;;;;4988553;28;20042;-53
2023/05/11 10:07:30;;;;;;;1.85;0.30;;;10.40;99.90;;;;;;4995377;28;20101;-55
2023/05/11 10:10:05;;;;;;;0.98;0.30;;;10.60;99.90;;;;;;5014695;28;20406;-52
2023/05/11 10:12:36;;;;;;;0.57;0.52;;;10.60;99.90;;;;;;4985632;28;20045;-52
2023/05/11 10:15:08;;;;;;;1.58;0.60;;;10.60;99.90;;;;;;4995004;28;20131;-53
2023/05/11 10:17:36;;;;;;;1.23;0.52;;;10.80;99.90;;;;;;5002845;28;20058;-56
2023/05/11 10:20:05;;;;;;;1.38;0.50;;;10.70;99.90;;;;;;5006560;28;20057;-52
2023/05/11 10:22:32;;;;;;;1.70;1.05;;;10.80;99.90;;;;;;5004225;28;20108;-54
2023/05/11 10:25:00;;;;;;;1.05;0.52;;;11.00;99.90;;;;;;5007002;28;20113;-54
2023/05/11 10:27:27;;;;;;;1.10;0.52;;;11.00;99.90;;;;;;5003692;28;20050;-53
2023/05/11 10:29:54;;;;;;;;;;;10.90;99.90;;;;;;5008381;28;20048;-56
2023/05/11 10:32:21;;;;;;;0.60;0.60;;;11.00;99.90;;;;;;4993197;28;20310;-53
2023/05/11 10:34:51;;;;;;;2.50;0.63;;;11.00;99.90;;;;;;4994130;28;20078;-57
2023/05/11 10:37:19;;;;;;;0.20;0.20;;;10.80;99.90;;;;;;4994520;28;20046;-55
2023/05/11 10:39:48;;;;;;;0.32;0.30;;;10.40;99.90;;;;;;4993735;28;20050;-55
2023/05/11 10:42:37;;;;;;;0.73;0.50;;;10.40;99.90;;;;;;5010748;28;20061;-56
2023/05/11 10:45:40;;;;;;;1.30;0.57;;;10.20;99.90;;;;;;4997347;28;20129;-53
2023/05/11 10:48:19;;;;;;;0.50;0.43;;;10.50;99.90;;;;;;4990519;28;20398;-54
2023/05/11 10:51:12;;;;;;;0.68;0.30;;;10.70;99.90;;;;;;4993391;28;20038;-56
2023/05/11 10:54:16;;;;;;;0.50;0.50;;;10.50;99.90;;;;;;5006033;28;20503;-55
2023/05/11 10:57:10;;;;;;;0.90;0.40;;;10.30;99.90;;;;;;4996888;28;20061;-56
2023/05/11 10:59:52;;;;;;;1.33;0.50;;;10.20;99.90;;;;;;5010032;28;20513;-55
2023/05/11 11:02:20;;;;;;;0.50;0.50;;;10.20;99.90;;;;;;4992687;28;20504;-52
2023/05/11 11:04:49;;;;;;;0.38;0.30;;;10.10;99.90;;;;;;5008579;28;20097;-54
2023/05/11 11:07:18;;;;;;;0.68;0.60;;;10.00;99.90;;;;;;4992963;28;20137;-52
2023/05/11 11:09:55;;;;;;;0.40;0.40;;;10.20;99.90;;;;;;4993779;28;20049;-53
2023/05/11 11:12:25;;;;;;;1.67;0.95;;;10.20;99.90;;;;;;4993236;28;20061;-55
2023/05/11 11:14:57;;;;;;;0.95;0.57;;;10.20;99.90;;;;;;4993795;28;20101;-54
2023/05/11 11:17:27;;;;;;;1.30;0.50;;;10.10;99.90;;;;;;4992851;28;20514;-54
2023/05/11 11:19:54;;;;;;;0.40;0.38;;;10.20;99.90;;;;;;5007718;28;20049;-52
2023/05/11 11:22:42;;;;;;;1.38;0.80;;;10.20;99.90;;;;;;5002401;28;20046;-54
2023/05/11 11:25:14;;;;;;;1.48;0.93;;;10.10;99.90;;;;;;5004625;28;20062;-53
2023/05/11 11:27:43;;;;;;;1.38;0.77;;;10.20;99.90;;;;;;4993591;28;20042;-54
2023/05/11 11:30:27;;;;;;;1.23;0.75;;;10.20;99.90;;;;;;4992642;28;20057;-56
2023/05/11 11:33:15;;;;;;;2.50;0.70;;;10.30;99.90;;;;;;5001523;28;20080;-55
2023/05/11 11:35:41;;;;;;;1.23;0.70;;;10.30;99.90;;;;;;4992428;28;20097;-55
2023/05/11 11:38:19;;;;;;;1.75;0.77;;;10.50;99.90;;;;;;4992551;28;20745;-56
2023/05/11 11:40:50;;;;;;;0.60;0.60;;;10.50;99.90;;;;;;4998726;28;20081;-53
2023/05/11 11:43:20;;;;;;;1.13;0.80;;;10.70;99.90;;;;;;4993525;28;20483;-53
2023/05/11 11:45:59;;;;;;;2.45;0.60;;;10.70;99.90;;;;;;5005557;28;20038;-56
2023/05/11 11:48:37;;;;;;;0.52;0.50;;;10.70;99.90;;;;;;5000967;28;20128;-54
2023/05/11 11:51:07;;;;;;;1.90;0.90;;;10.60;99.90;;;;;;5003191;28;20112;-56
2023/05/11 11:53:38;;;;;;;1.45;0.88;;;10.60;99.90;;;;;;5000567;28;20126;-56
2023/05/11 11:56:07;;;;;;;0.57;0.45;;;10.70;99.90;;;;;;4993162;28;20045;-56
2023/05/11 11:58:40;;;;;;;1.02;0.82;;;10.70;99.90;;;;;;4994079;28;20117;-54
2023/05/11 12:01:19;;;;;;;2.05;0.98;;;10.70;99.90;;;;;;5011954;28;20077;-52
2023/05/11 12:04:09;;;;;;;0.90;0.80;;;10.70;99.90;;;;;;4992482;28;20093;-56
2023/05/11 12:06:43;;;;;;;1.90;0.90;;;10.70;99.90;;;;;;4991804;28;20042;-52
2023/05/11 12:09:10;;;;;;;1.45;0.80;;;10.20;99.90;;;;;;4998557;28;20174;-52
2023/05/11 12:11:37;;;;;;;1.65;0.80;;;10.20;99.90;;;;;;4999107;28;20038;-57
2023/05/11 12:14:04;;;;;;;1.25;0.90;;;10.10;99.90;;;;;;4994732;28;20088;-56
2023/05/11 12:16:31;;;;;;;3.13;0.80;;;10.30;99.90;;;;;;4993025;28;20108;-52
2023/05/11 12:18:59;;;;;;;1.75;0.70;;;10.40;99.90;;;;;;5006832;28;20046;-55
2023/05/11 12:21:32;;;;;;;1.65;0.75;;;10.50;99.90;;;;;;5001860;28;20503;-56
2023/05/11 12:24:04;;;;;;;1.33;0.70;;;10.70;99.90;;;;;;5012253;28;20120;-55
2023/05/11 12:26:33;;;;;;;0.85;0.60;;;10.50;99.90;;;;;;4991980;28;20034;-55
2023/05/11 12:29:11;;;;;;;1.15;0.70;;;10.20;99.90;;;;;;4992000;28;20038;-52
2023/05/11 12:31:40;;;;;;;1.05;0.90;;;10.20;99.90;;;;;;5002600;28;20401;-55
2023/05/11 12:34:20;;;;;;;1.27;0.88;;;10.30;99.90;;;;;;4996338;28;20074;-52
2023/05/11 12:36:52;;;;;;;0.77;0.50;;;10.40;99.90;;;;;;4992338;28;20443;-53
2023/05/11 12:39:21;;;;;;;0.95;0.60;;;10.60;99.90;;;;;;4991453;28;20077;-52
2023/05/11 12:41:49;;;;;;;2.42;0.60;;;10.60;99.90;;;;;;5006180;28;20042;-52
2023/05/11 12:44:17;;;;;;;0.80;0.60;;;10.60;99.90;;;;;;4990512;28;20070;-56
2023/05/11 12:46:45;;;;;;;1.38;0.47;;;10.60;99.90;;;;;;5004295;28;20034;-53
2023/05/11 12:49:16;;;;;;;0.75;0.60;;;10.40;99.90;;;;;;4995044;28;20122;-53
2023/05/11 12:52:06;;;;;;;1.75;0.80;;;10.50;99.90;;;;;;4991534;28;20043;-55
2023/05/11 12:54:38;;;;;;;0.88;0.60;;;10.60;99.90;;;;;;4991512;28;20046;-56
2023/05/11 12:57:06;;;;;;;1.98;1.52;;;10.50;99.90;;;;;;4992227;28;20054;-55
2023/05/11 12:59:34;;;;;;;1.00;0.80;;;10.50;99.90;;;;;;4993038;28;20046;-55
2023/05/11 13:02:19;;;;;;;0.82;0.65;;;10.40;99.90;;;;;;5010975;28;20045;-53
2023/05/11 13:04:47;;;;;;;0.95;0.60;;;10.10;99.90;;;;;;5001688;28;20038;-54
2023/05/11 13:07:23;;;;;;;0.60;0.50;;;10.10;99.90;;;;;;5011690;28;20041;-56
2023/05/11 13:09:59;;;;;;;1.35;0.77;;;10.30;99.90;;;;;;4997917;28;20484;-56